Saint Marys, Indiana
Current Conditions -  °F | °C
As of 4:54 AM on Friday 19 Dec 2014 (Local Time) from KSBN Reporting Station
Overcast Overcast  
Wind Chill: 23°   Ceiling: 1800
Heat Index: 28°   Visibility: 8mi
Dew Point: 23°   Wind: 5mph
Humidity: 81%   Direction: 250°WSW
Pressure: 30.24"   Gusts: NA
Location:  41.7197°N, 86.2504°W
Report Text: KSBN 190954Z 25004KT 8SM BKN018 OVC022 M02/M05 A3024 RMK AO2 SNB13E38 SLP250 P0000 T10221050
Loading
Personal Weather Stations






























Interactive Weather Map New forecast layout! Learn more

10-Day Weather Forecast

Advertisements
Track Severe Weather on mobile